Terminal Aerodrome Forecast
Issued by NWS

Home | Current Version | Previous Version | Graphics & Text | Print | Product List | Glossary On
Versions: 1 2 3 4 5 6 7 8 9 10 11 12 13 14
000
FTUS43 KLSX 010500
TAFUIN
TAF
KUIN 010520Z 0106/0206 14004KT P6SM SCT120
     FM011000 VRB02KT 5SM BR SCT250
     FM011300 VRB04KT P6SM SCT120 BKN250
     FM011700 15005KT P6SM VCTS BKN050CB
     FM012200 VRB04KT P6SM SCT050 BKN250=

USA.gov is the U.S. government's official web portal to all federal, state and local government web resources and services.